Time;durP1;ratioP1;P1;durP2;ratioP2;P2;SDS_P1;SDS_P2;PMS_P1;PMS_P2;Temp;Humidity;BMP_temperature;BMP_pressure;BME280_temperature;BME280_humidity;BME280_pressure;Samples;Min_cycle;Max_cycle;Signal;HPM_P1;HPM_P2
2024/01/23 00:00:16;;;;;;;2.75;2.00;;;;;;;0.99;69.67;100230.06;5093112;28;20275;-73
2024/01/23 00:02:47;;;;;;;3.33;2.33;;;;;;;1.03;69.64;100239.44;5094374;28;20052;-72
2024/01/23 00:05:16;;;;;;;2.70;2.03;;;;;;;1.01;69.85;100230.97;5093073;28;20051;-72
2024/01/23 00:07:45;;;;;;;5.85;1.25;;;;;;;1.00;70.04;100233.44;5093976;28;20549;-72
2024/01/23 00:10:14;;;;;;;4.97;2.50;;;;;;;0.92;69.67;100215.50;5094531;28;20463;-72
2024/01/23 00:12:43;;;;;;;2.58;2.28;;;;;;;0.96;69.87;100234.94;5093773;28;20058;-72
2024/01/23 00:15:12;;;;;;;1.90;1.80;;;;;;;0.95;69.86;100220.66;5059371;28;20051;-72
2024/01/23 00:17:41;;;;;;;5.05;2.70;;;;;;;0.96;70.39;100209.81;5094072;28;20038;-72
2024/01/23 00:20:12;;;;;;;0.80;0.80;;;;;;;0.98;70.28;100209.91;5042068;28;20406;-73
2024/01/23 00:22:41;;;;;;;0.82;0.82;;;;;;;1.00;70.99;100209.19;5093761;28;20098;-73
2024/01/23 00:25:10;;;;;;;1.07;1.07;;;;;;;0.99;70.25;100220.00;5075673;28;20512;-72
2024/01/23 00:27:39;;;;;;;0.80;0.80;;;;;;;0.99;70.54;100221.66;5093966;28;20048;-72
2024/01/23 00:30:10;;;;;;;0.50;0.50;;;;;;;0.98;71.22;100222.47;5093996;28;20040;-72
2024/01/23 00:32:39;;;;;;;0.80;0.80;;;;;;;0.96;71.08;100232.41;5093939;28;20044;-72
2024/01/23 00:35:09;;;;;;;1.40;1.30;;;;;;;0.94;71.22;100239.03;5092679;28;20093;-72
2024/01/23 00:37:39;;;;;;;1.40;1.30;;;;;;;0.94;71.17;100245.72;5093814;28;20040;-72
2024/01/23 00:40:12;;;;;;;2.50;2.30;;;;;;;0.91;71.07;100245.59;5093682;28;20061;-72
2024/01/23 00:42:41;;;;;;;0.82;0.82;;;;;;;0.87;70.93;100242.06;5093785;28;20043;-72
2024/01/23 00:45:10;;;;;;;1.75;1.63;;;;;;;0.85;71.36;100246.16;5092821;28;20040;-72
2024/01/23 00:47:39;;;;;;;0.50;0.50;;;;;;;0.83;71.78;100245.22;5093743;28;20044;-72
2024/01/23 00:50:09;;;;;;;2.72;2.40;;;;;;;0.83;71.88;100249.38;5075479;28;20044;-73
2024/01/23 00:52:39;;;;;;;2.70;2.50;;;;;;;0.81;71.79;100251.84;5093698;28;20039;-72
2024/01/23 00:55:09;;;;;;;1.23;1.13;;;;;;;0.84;72.17;100236.88;5093758;28;20055;-74
2024/01/23 00:57:37;;;;;;;0.98;0.98;;;;;;;0.89;71.89;100239.63;5093188;28;20048;-73
2024/01/23 01:00:09;;;;;;;0.77;0.77;;;;;;;0.92;72.11;100243.13;5042803;28;20044;-73
2024/01/23 01:02:39;;;;;;;2.15;2.05;;;;;;;0.61;72.60;100182.22;5093685;28;20071;-73
2024/01/23 01:05:08;;;;;;;3.90;1.92;;;;;;;0.93;73.06;100232.31;5093361;28;20038;-72
2024/01/23 01:07:38;;;;;;;4.82;4.43;;;;;;;0.52;72.72;100161.72;5092274;28;20044;-73
2024/01/23 01:10:08;;;;;;;3.50;3.30;;;;;;;0.88;73.25;100227.84;5097030;28;20048;-73
2024/01/23 01:12:36;;;;;;;;;;;;;;;0.81;73.40;100226.72;5097941;28;20048;-72
2024/01/23 01:15:06;;;;;;;1.80;1.70;;;;;;;0.81;74.15;100241.78;5096082;28;19920;-73
2024/01/23 01:17:35;;;;;;;3.33;3.13;;;;;;;0.85;73.89;100238.63;5097210;28;20089;-73
2024/01/23 01:20:05;;;;;;;1.17;1.15;;;;;;;0.85;74.38;100252.81;5097715;28;20040;-73
2024/01/23 01:22:33;;;;;;;5.18;2.20;;;;;;;0.81;74.13;100253.47;5096035;28;20449;-73
2024/01/23 01:25:04;;;;;;;8.60;3.33;;;;;;;0.79;74.57;100248.41;5096991;28;20036;-72
2024/01/23 01:27:33;;;;;;;0.90;0.85;;;;;;;0.79;74.96;100243.38;5097625;28;20048;-72
2024/01/23 01:30:05;;;;;;;3.05;1.73;;;;;;;0.77;75.58;100239.91;5095817;28;20498;-72
2024/01/23 01:32:34;;;;;;;1.05;1.05;;;;;;;0.76;75.44;100232.31;5096874;28;20517;-72
2024/01/23 01:35:04;;;;;;;1.10;1.05;;;;;;;0.79;75.61;100240.84;5097066;28;20044;-73
2024/01/23 01:37:33;;;;;;;2.65;2.45;;;;;;;0.75;75.79;100249.03;5096714;28;20064;-72
2024/01/23 01:40:05;;;;;;;1.88;1.77;;;;;;;0.72;76.16;100246.34;5096720;28;20483;-72
2024/01/23 01:42:34;;;;;;;0.43;0.43;;;;;;;0.73;76.45;100233.03;5095862;28;20048;-72
2024/01/23 01:45:06;;;;;;;1.48;1.23;;;;;;;0.68;76.44;100214.38;5096666;28;20106;-73
2024/01/23 01:47:36;;;;;;;1.65;1.58;;;;;;;0.63;77.16;100220.81;5097249;28;20048;-72
2024/01/23 01:50:07;;;;;;;2.45;2.28;;;;;;;0.47;77.32;100193.28;5095696;28;20036;-72
2024/01/23 01:52:39;;;;;;;2.17;1.63;;;;;;;0.64;77.11;100232.59;5095667;28;20477;-73
2024/01/23 01:55:10;;;;;;;2.03;1.80;;;;;;;0.68;77.78;100231.94;5096770;28;20051;-73
2024/01/23 01:57:41;;;;;;;2.20;2.03;;;;;;;0.67;77.58;100222.69;5096145;28;20041;-74
2024/01/23 02:00:12;;;;;;;2.78;2.15;;;;;;;0.69;77.69;100228.66;5096663;28;20071;-72
2024/01/23 02:02:43;;;;;;;4.78;2.60;;;;;;;0.76;78.44;100238.19;5096361;28;20123;-72
2024/01/23 02:05:12;;;;;;;3.05;2.83;;;;;;;0.74;78.12;100219.69;5077978;28;20134;-73
2024/01/23 02:07:41;;;;;;;4.30;4.00;;;;;;;0.82;78.70;100222.53;5095240;28;20040;-73
2024/01/23 02:10:12;;;;;;;0.98;0.93;;;;;;;0.86;77.70;100225.28;5096486;28;20032;-73
2024/01/23 02:12:42;;;;;;;3.00;2.38;;;;;;;0.85;77.92;100247.78;5096159;28;20142;-73
2024/01/23 02:15:11;;;;;;;1.92;1.77;;;;;;;0.46;77.99;100166.44;5078164;28;20498;-73
2024/01/23 02:17:40;;;;;;;3.97;2.73;;;;;;;0.84;78.36;100229.34;5096135;28;20032;-72
2024/01/23 02:20:10;;;;;;;0.50;0.47;;;;;;;0.77;77.85;100219.81;5076445;28;20048;-73
2024/01/23 02:22:39;;;;;;;4.32;3.97;;;;;;;0.86;78.14;100235.31;5095120;28;20071;-73
2024/01/23 02:25:09;;;;;;;1.58;1.48;;;;;;;0.82;78.41;100233.44;5096224;28;20036;-72
2024/01/23 02:27:38;;;;;;;3.80;2.47;;;;;;;0.82;78.69;100228.41;5095002;28;20131;-72
2024/01/23 02:30:09;;;;;;;1.88;1.77;;;;;;;0.81;78.63;100220.81;5096011;28;20044;-72
2024/01/23 02:32:38;;;;;;;1.05;1.05;;;;;;;0.73;78.35;100222.97;5094426;28;20044;-72
2024/01/23 02:35:08;;;;;;;1.63;1.52;;;;;;;0.70;78.63;100232.88;5096073;28;20127;-73
2024/01/23 02:37:37;;;;;;;1.17;1.10;;;;;;;0.73;78.09;100243.06;5094479;28;20044;-73
2024/01/23 02:40:07;;;;;;;;;;;;;;;0.76;78.17;100253.28;5095978;28;20581;-74
2024/01/23 02:42:37;;;;;;;0.82;0.82;;;;;;;0.77;78.58;100260.00;5095847;28;20043;-72
2024/01/23 02:45:07;;;;;;;3.55;3.22;;;;;;;0.78;78.63;100256.72;5094642;28;20040;-72
2024/01/23 02:47:36;;;;;;;2.08;1.55;;;;;;;0.75;78.75;100248.16;5095810;28;20067;-73
2024/01/23 02:50:06;;;;;;;7.60;3.37;;;;;;;0.79;78.80;100265.97;5095689;28;20032;-73
2024/01/23 02:52:35;;;;;;;3.03;2.40;;;;;;;0.76;79.31;100262.44;5095891;28;20436;-72
2024/01/23 02:55:05;;;;;;;0.93;0.93;;;;;;;0.74;79.16;100259.00;5095588;28;20040;-72
2024/01/23 02:57:34;;;;;;;2.10;1.95;;;;;;;0.79;79.13;100265.97;5076810;28;20503;-72
2024/01/23 03:00:06;;;;;;;1.83;1.70;;;;;;;0.83;79.49;100266.97;5095162;28;20033;-72
2024/01/23 03:02:35;;;;;;;1.30;1.20;;;;;;;0.82;79.54;100263.59;5077861;28;20142;-72
2024/01/23 03:05:06;;;;;;;0.75;0.75;;;;;;;0.76;79.52;100263.31;5095330;28;20501;-73
2024/01/23 03:07:35;;;;;;;;;;;;;;;0.70;79.37;100263.00;5095712;28;20044;-73
2024/01/23 03:10:04;;;;;;;0.93;0.93;;;;;;;0.67;79.40;100277.97;5095295;28;19927;-72
2024/01/23 03:12:34;;;;;;;2.83;2.63;;;;;;;0.62;79.85;100269.34;5095489;28;20036;-72
2024/01/23 03:15:05;;;;;;;0.57;0.57;;;;;;;0.67;79.79;100265.41;5076904;28;20044;-72
2024/01/23 03:17:34;;;;;;;16.83;2.40;;;;;;;0.54;79.60;100233.81;5093406;28;20044;-73
2024/01/23 03:20:04;;;;;;;5.25;2.42;;;;;;;0.68;80.21;100250.38;5094921;28;20044;-72
2024/01/23 03:22:33;;;;;;;3.17;2.65;;;;;;;0.63;79.87;100245.94;5076770;28;20047;-72
2024/01/23 03:25:02;;;;;;;5.97;3.55;;;;;;;0.66;79.93;100254.47;5095115;28;20043;-74
2024/01/23 03:27:32;;;;;;;2.92;2.72;;;;;;;0.51;80.61;100222.75;5093706;28;20071;-73
2024/01/23 03:30:01;;;;;;;8.27;3.03;;;;;;;0.68;80.52;100254.53;5094734;28;20032;-72
2024/01/23 03:32:31;;;;;;;0.70;0.70;;;;;;;0.64;80.53;100245.16;5092982;28;20040;-73
2024/01/23 03:35:00;;;;;;;1.75;1.65;;;;;;;0.63;80.11;100248.44;5094675;28;20068;-72
2024/01/23 03:37:29;;;;;;;0.77;0.77;;;;;;;0.65;80.84;100259.41;5094598;28;20036;-72
2024/01/23 03:39:58;;;;;;;2.17;1.98;;;;;;;0.66;80.86;100272.06;5094479;28;20482;-73
2024/01/23 03:42:27;;;;;;;3.75;2.38;;;;;;;0.69;80.72;100266.31;5094338;28;20437;-74
2024/01/23 03:44:56;;;;;;;1.23;1.13;;;;;;;0.70;81.12;100257.97;5093439;28;20036;-73
2024/01/23 03:47:25;;;;;;;1.03;0.97;;;;;;;0.68;80.86;100257.06;5093453;28;20050;-72
2024/01/23 03:49:55;;;;;;;2.53;2.33;;;;;;;0.55;81.34;100237.19;5094485;28;20049;-73
2024/01/23 03:52:24;;;;;;;0.40;0.40;;;;;;;0.65;81.15;100259.41;5094838;28;20269;-72
2024/01/23 03:54:53;;;;;;;3.08;2.83;;;;;;;0.60;81.63;100246.63;5093265;28;20071;-72
2024/01/23 03:57:23;;;;;;;0.70;0.70;;;;;;;0.60;81.36;100250.84;5092772;28;20097;-73
2024/01/23 03:59:51;;;;;;;3.38;2.85;;;;;;;0.54;81.05;100260.56;5093971;28;20044;-72
2024/01/23 04:02:22;;;;;;;1.40;1.30;;;;;;;0.55;81.94;100269.84;5092954;28;20132;-73
2024/01/23 04:04:52;;;;;;;0.82;0.82;;;;;;;0.56;82.08;100269.03;5094147;28;20036;-73
2024/01/23 04:07:23;;;;;;;2.75;2.58;;;;;;;0.51;81.72;100265.44;5094522;28;20048;-73
2024/01/23 04:09:52;;;;;;;1.05;1.00;;;;;;;0.52;81.89;100259.63;5094029;28;20036;-73
2024/01/23 04:12:21;;;;;;;1.77;1.67;;;;;;;0.49;82.31;100262.84;5094206;28;20040;-73
2024/01/23 04:14:50;;;;;;;1.48;1.38;;;;;;;0.47;82.13;100253.53;5093920;28;20577;-73
2024/01/23 04:17:19;;;;;;;2.42;1.90;;;;;;;0.41;82.44;100260.75;5093846;28;20093;-73
2024/01/23 04:19:48;;;;;;;1.98;1.83;;;;;;;0.34;82.47;100256.22;5093734;28;20040;-73
2024/01/23 04:22:19;;;;;;;3.05;2.80;;;;;;;0.46;82.96;100271.88;5093905;28;20486;-74
2024/01/23 04:24:49;;;;;;;2.40;2.25;;;;;;;0.48;83.15;100260.28;5094099;28;20066;-73
2024/01/23 04:27:18;;;;;;;1.70;1.60;;;;;;;0.37;83.04;100236.28;5094059;28;20190;-73
2024/01/23 04:29:47;;;;;;;3.28;2.10;;;;;;;0.39;83.25;100245.63;5094126;28;20032;-73
2024/01/23 04:32:18;;;;;;;7.73;2.97;;;;;;;0.33;83.17;100262.03;5093816;28;20066;-73
2024/01/23 04:34:47;;;;;;;4.13;3.80;;;;;;;0.40;83.55;100271.59;5092751;28;20275;-73
2024/01/23 04:37:17;;;;;;;1.13;1.05;;;;;;;0.41;83.57;100274.16;5093897;28;20036;-73
2024/01/23 04:39:50;;;;;;;2.10;1.95;;;;;;;0.37;83.34;100271.44;5092598;28;20047;-73
2024/01/23 04:42:21;;;;;;;1.55;1.45;;;;;;;0.29;83.52;100263.53;5093930;28;20079;-73
2024/01/23 04:44:50;;;;;;;3.75;2.15;;;;;;;0.39;83.36;100274.88;5097228;28;20101;-73
2024/01/23 04:47:19;;;;;;;2.35;2.22;;;;;;;0.24;83.46;100239.00;5098350;28;20436;-74
2024/01/23 04:49:48;;;;;;;3.33;3.03;;;;;;;0.41;83.32;100264.13;5097944;28;20047;-73
2024/01/23 04:52:17;;;;;;;7.65;5.18;;;;;;;0.39;83.70;100254.78;5097622;28;20401;-73
2024/01/23 04:54:46;;;;;;;9.10;3.00;;;;;;;0.39;83.42;100265.69;5097940;28;20043;-73
2024/01/23 04:57:17;;;;;;;6.10;4.15;;;;;;;0.45;83.71;100266.03;5097518;28;20047;-73
2024/01/23 04:59:46;;;;;;;1.55;1.50;;;;;;;0.53;83.59;100268.88;5097710;28;20502;-73
2024/01/23 05:02:15;;;;;;;1.80;1.27;;;;;;;0.60;83.95;100265.91;5098432;28;20385;-73
2024/01/23 05:04:44;;;;;;;1.38;1.33;;;;;;;0.60;83.60;100260.88;5097698;28;20036;-73
2024/01/23 05:07:13;;;;;;;0.93;0.90;;;;;;;0.65;83.71;100271.97;5097302;28;20040;-73
2024/01/23 05:09:42;;;;;;;6.67;2.83;;;;;;;0.63;83.21;100261.88;5097688;28;20047;-73
2024/01/23 05:12:11;;;;;;;1.50;1.15;;;;;;;0.63;83.58;100261.00;5097564;28;20040;-73
2024/01/23 05:14:41;;;;;;;4.17;1.77;;;;;;;0.61;83.28;100267.59;5097267;28;20075;-73
2024/01/23 05:17:11;;;;;;;2.42;2.28;;;;;;;0.64;83.13;100270.25;5097290;28;20296;-73
2024/01/23 05:19:40;;;;;;;4.82;4.35;;;;;;;0.62;82.97;100280.22;5096294;28;20036;-73
2024/01/23 05:22:09;;;;;;;0.65;0.65;;;;;;;0.63;82.88;100291.13;5095774;28;20105;-73
2024/01/23 05:24:38;;;;;;;0.85;0.80;;;;;;;0.65;82.91;100309.63;5097646;28;20065;-73
2024/01/23 05:27:07;;;;;;;1.95;1.85;;;;;;;0.66;82.99;100302.19;5097321;28;20032;-73
2024/01/23 05:29:36;;;;;;;2.75;2.55;;;;;;;0.52;82.87;100272.19;5096937;28;20075;-73
2024/01/23 05:32:07;;;;;;;2.13;2.03;;;;;;;0.67;83.09;100300.56;5097201;28;20070;-73
2024/01/23 05:34:36;;;;;;;3.30;3.05;;;;;;;0.67;82.74;100298.03;5097506;28;20066;-73
2024/01/23 05:37:05;;;;;;;2.15;1.98;;;;;;;0.67;82.48;100295.53;5078750;28;20565;-73
2024/01/23 05:39:37;;;;;;;2.25;2.03;;;;;;;0.66;83.38;100306.34;5096893;28;20028;-73
2024/01/23 05:42:07;;;;;;;1.42;1.33;;;;;;;0.67;82.91;100313.13;5096661;28;20056;-73
2024/01/23 05:44:36;;;;;;;3.67;3.33;;;;;;;0.70;82.89;100323.28;5096646;28;20127;-73
2024/01/23 05:47:06;;;;;;;2.27;2.00;;;;;;;0.72;82.93;100326.72;5096912;28;20040;-73
2024/01/23 05:49:35;;;;;;;3.78;2.47;;;;;;;0.71;82.94;100330.03;5096852;28;20064;-74
2024/01/23 05:52:04;;;;;;;0.70;0.70;;;;;;;0.67;83.40;100328.19;5097024;28;20127;-73
2024/01/23 05:54:33;;;;;;;4.35;4.00;;;;;;;0.72;83.41;100325.88;5096147;28;20276;-73
2024/01/23 05:57:02;;;;;;;2.30;1.50;;;;;;;0.71;83.47;100331.69;5096365;28;20102;-73
2024/01/23 05:59:31;;;;;;;2.00;1.90;;;;;;;0.71;83.37;100340.09;5096566;28;20307;-74
2024/01/23 06:02:00;;;;;;;0.97;0.93;;;;;;;0.69;83.01;100359.25;5096606;28;20064;-73
2024/01/23 06:04:30;;;;;;;5.35;3.33;;;;;;;0.64;83.54;100346.47;5095083;28;20044;-73
2024/01/23 06:07:00;;;;;;;1.85;1.70;;;;;;;0.60;83.17;100346.25;5096542;28;20040;-73
2024/01/23 06:09:29;;;;;;;1.17;1.13;;;;;;;0.60;83.18;100343.75;5096585;28;20482;-73
2024/01/23 06:11:58;;;;;;;3.85;2.90;;;;;;;0.60;83.68;100342.06;5095114;28;20482;-72
2024/01/23 06:14:27;;;;;;;1.07;1.07;;;;;;;0.61;83.35;100345.44;5096471;28;20036;-73
2024/01/23 06:16:56;;;;;;;2.90;2.60;;;;;;;0.59;83.67;100362.09;5095983;28;20276;-74
2024/01/23 06:19:25;;;;;;;;;;;;;;;0.62;83.58;100372.31;5096242;28;20448;-73
2024/01/23 06:21:55;;;;;;;5.53;2.83;;;;;;;0.61;84.09;100365.53;5096284;28;19969;-72
2024/01/23 06:24:24;;;;;;;2.88;2.67;;;;;;;0.61;83.58;100358.88;5095033;28;20437;-73
2024/01/23 06:26:53;;;;;;;1.38;1.33;;;;;;;0.64;83.87;100359.03;5096117;28;20044;-73
2024/01/23 06:29:22;;;;;;;1.55;1.45;;;;;;;0.64;83.44;100373.22;5078259;28;20449;-73
2024/01/23 06:31:51;;;;;;;4.28;2.45;;;;;;;0.62;83.60;100369.78;5095972;28;20048;-74
2024/01/23 06:34:21;;;;;;;0.93;0.93;;;;;;;0.65;83.73;100379.97;5095816;28;20059;-72
2024/01/23 06:36:51;;;;;;;7.45;3.70;;;;;;;0.68;84.39;100382.63;5095938;28;20561;-74
2024/01/23 06:39:22;;;;;;;2.00;1.90;;;;;;;0.67;83.57;100378.41;5095646;28;20093;-73
2024/01/23 06:41:51;;;;;;;3.92;1.63;;;;;;;0.66;83.62;100374.16;5095811;28;20509;-73
2024/01/23 06:44:19;;;;;;;0.97;0.90;;;;;;;0.66;83.61;100377.53;5095536;28;20047;-74
2024/01/23 06:46:48;;;;;;;3.13;2.93;;;;;;;0.66;83.71;100376.69;5094199;28;20139;-73
2024/01/23 06:49:17;;;;;;;1.52;1.42;;;;;;;0.53;84.00;100354.25;5095398;28;20581;-73
2024/01/23 06:51:47;;;;;;;2.38;2.15;;;;;;;0.61;83.67;100378.09;5095418;28;20044;-73
2024/01/23 06:54:16;;;;;;;1.87;1.77;;;;;;;0.18;84.12;100299.78;5094199;28;20159;-73
2024/01/23 06:56:46;;;;;;;3.20;2.95;;;;;;;0.58;84.11;100383.81;5094940;28;20296;-73
2024/01/23 06:59:16;;;;;;;2.42;2.22;;;;;;;0.64;84.00;100383.28;5095037;28;20582;-73
2024/01/23 07:01:46;;;;;;;16.40;3.53;;;;;;;0.65;84.52;100384.97;5094765;28;20116;-73
2024/01/23 07:04:16;;;;;;;1.40;1.30;;;;;;;0.62;84.54;100374.81;5095361;28;20040;-74
2024/01/23 07:06:45;;;;;;;2.05;1.88;;;;;;;0.23;84.28;100332.63;5094515;28;20040;-73
2024/01/23 07:09:13;;;;;;;3.20;2.67;;;;;;;0.55;84.32;100402.91;5095227;28;20068;-72
2024/01/23 07:11:43;;;;;;;3.13;2.83;;;;;;;0.53;84.21;100399.44;5095199;28;20044;-73
2024/01/23 07:14:13;;;;;;;2.55;2.38;;;;;;;0.57;84.83;100413.91;5093816;28;20047;-72
2024/01/23 07:16:42;;;;;;;1.00;0.95;;;;;;;0.60;85.26;100419.09;5095194;28;20047;-73
2024/01/23 07:19:11;;;;;;;2.40;2.17;;;;;;;0.62;84.67;100430.91;5094829;28;20457;-74
2024/01/23 07:21:41;;;;;;;0.95;0.90;;;;;;;0.59;84.97;100442.44;5094959;28;20441;-73
2024/01/23 07:24:11;;;;;;;1.65;1.55;;;;;;;0.65;85.33;100456.19;5094719;28;20051;-74
2024/01/23 07:26:40;;;;;;;2.38;2.17;;;;;;;0.64;84.77;100439.41;5093749;28;20043;-74
2024/01/23 07:29:09;;;;;;;1.70;1.60;;;;;;;0.65;85.34;100460.31;5094903;28;20036;-73
2024/01/23 07:31:40;;;;;;;2.22;2.13;;;;;;;0.65;84.85;100460.31;5095240;28;20047;-74
2024/01/23 07:34:09;;;;;;;3.92;3.22;;;;;;;0.59;84.97;100450.00;5094830;28;20051;-73
2024/01/23 07:36:38;;;;;;;;;;;;;;;0.59;85.45;100470.06;5093954;28;20086;-73
2024/01/23 07:39:07;;;;;;;2.60;2.40;;;;;;;0.60;85.81;100482.69;5094577;28;19973;-72
2024/01/23 07:41:36;;;;;;;3.50;1.87;;;;;;;0.56;85.56;100474.94;5094365;28;20486;-73
2024/01/23 07:44:05;;;;;;;3.63;1.10;;;;;;;0.54;84.98;100481.53;5093655;28;20324;-73
2024/01/23 07:46:34;;;;;;;1.75;1.65;;;;;;;0.40;85.58;100464.88;5094771;28;20489;-73
2024/01/23 07:49:05;;;;;;;7.65;4.43;;;;;;;0.58;85.21;100513.53;5094621;28;20048;-72
2024/01/23 07:51:46;;;;;;;3.30;2.85;;;;;;;0.59;85.66;100495.19;5097150;28;20074;-74
2024/01/23 07:54:15;;;;;;;2.72;1.85;;;;;;;0.58;86.18;100500.97;5094480;28;20052;-74
2024/01/23 07:56:44;;;;;;;5.35;3.13;;;;;;;0.59;85.66;100492.69;5092834;28;20562;-74
2024/01/23 07:59:13;;;;;;;9.40;4.45;;;;;;;0.18;86.15;100421.88;5094361;28;20043;-74
2024/01/23 08:01:42;;;;;;;3.53;3.23;;;;;;;0.58;86.18;100489.28;5094315;28;20071;-73
2024/01/23 08:04:12;;;;;;;6.33;2.10;;;;;;;0.54;85.72;100474.00;5094239;28;20036;-73
2024/01/23 08:06:41;;;;;;;5.18;3.25;;;;;;;0.52;85.70;100463.00;5094361;28;20048;-72
2024/01/23 08:09:10;;;;;;;4.80;3.37;;;;;;;0.50;86.20;100474.63;5094181;28;20036;-74
2024/01/23 08:11:39;;;;;;;12.05;2.60;;;;;;;0.52;86.35;100483.97;5094240;28;20148;-73
2024/01/23 08:14:07;;;;;;;4.33;3.07;;;;;;;0.56;85.97;100485.84;5093833;28;20135;-74
2024/01/23 08:16:36;;;;;;;2.25;2.05;;;;;;;0.50;86.04;100464.59;5094127;28;20048;-73
2024/01/23 08:19:05;;;;;;;5.80;3.53;;;;;;;0.61;85.90;100488.59;5093934;28;20043;-73
2024/01/23 08:21:36;;;;;;;3.92;3.65;;;;;;;0.61;86.17;100484.44;5093863;28;20044;-73
2024/01/23 08:24:05;;;;;;;0.73;0.73;;;;;;;0.35;86.29;100448.72;5093745;28;20056;-73
2024/01/23 08:26:34;;;;;;;3.38;3.08;;;;;;;0.58;86.24;100498.47;5094007;28;20040;-73
2024/01/23 08:29:03;;;;;;;5.97;4.03;;;;;;;0.63;86.48;100497.06;5092361;28;20040;-73
2024/01/23 08:31:32;;;;;;;3.50;3.20;;;;;;;0.22;86.50;100407.06;5093705;28;20519;-72
2024/01/23 08:34:00;;;;;;;2.03;1.93;;;;;;;0.62;86.05;100491.16;5092120;28;20388;-73
2024/01/23 08:36:30;;;;;;;2.80;2.60;;;;;;;0.59;86.02;100460.03;5093795;28;20787;-73
2024/01/23 08:39:00;;;;;;;3.88;1.55;;;;;;;0.72;86.58;100482.47;5092028;28;20043;-72
2024/01/23 08:41:29;;;;;;;4.30;3.88;;;;;;;0.80;86.23;100476.19;5093562;28;20048;-73
2024/01/23 08:43:57;;;;;;;7.00;3.77;;;;;;;0.85;86.63;100488.97;5093647;28;20036;-72
2024/01/23 08:46:27;;;;;;;6.97;4.18;;;;;;;0.94;86.10;100489.44;5094009;28;20040;-72
2024/01/23 08:48:56;;;;;;;3.65;2.67;;;;;;;0.61;86.10;100429.19;5093599;28;20036;-72
2024/01/23 08:51:26;;;;;;;1.98;1.88;;;;;;;1.03;86.16;100488.25;5093537;28;20544;-72
2024/01/23 08:53:55;;;;;;;2.33;2.13;;;;;;;1.06;86.26;100485.00;5093655;28;20052;-72
2024/01/23 08:56:26;;;;;;;6.60;2.80;;;;;;;1.12;85.57;100478.66;5092812;28;20052;-72
2024/01/23 08:58:55;;;;;;;6.28;3.45;;;;;;;1.11;85.51;100489.50;5092194;28;20044;-71
2024/01/23 09:01:24;;;;;;;2.67;1.73;;;;;;;1.14;85.01;100502.22;5093033;28;20040;-71
2024/01/23 09:03:52;;;;;;;2.80;2.60;;;;;;;1.14;85.02;100514.78;5093075;28;20040;-72
2024/01/23 09:06:21;;;;;;;7.30;5.77;;;;;;;1.09;85.43;100516.19;5093258;28;20094;-73
2024/01/23 09:08:50;;;;;;;1.60;1.50;;;;;;;0.73;84.98;100454.06;5093029;28;20147;-71
2024/01/23 09:11:19;;;;;;;7.45;4.55;;;;;;;1.12;85.11;100516.38;5093424;28;20040;-73
2024/01/23 09:13:55;;;;;;;1.80;1.65;;;;;;;1.14;84.56;100529.00;5093485;28;20048;-73
2024/01/23 09:16:24;;;;;;;6.07;3.92;;;;;;;1.12;84.73;100533.97;5093567;28;20130;-72
2024/01/23 09:18:53;;;;;;;3.13;2.88;;;;;;;1.02;84.87;100514.16;5093161;28;20040;-71
2024/01/23 09:21:24;;;;;;;2.35;2.15;;;;;;;1.20;84.86;100540.22;5093241;28;20106;-71
2024/01/23 09:23:53;;;;;;;1.63;1.52;;;;;;;1.22;84.88;100551.19;5093514;28;20048;-71
2024/01/23 09:26:23;;;;;;;2.40;2.23;;;;;;;1.27;84.07;100541.41;5093445;28;20097;-68
2024/01/23 09:28:52;;;;;;;3.10;2.85;;;;;;;1.35;84.20;100546.00;5092009;28;20051;-69
2024/01/23 09:31:22;;;;;;;2.22;2.03;;;;;;;1.42;84.15;100533.75;5096625;28;20126;-70
2024/01/23 09:33:51;;;;;;;1.52;1.42;;;;;;;1.45;84.48;100527.22;5097178;28;20485;-71
2024/01/23 09:36:21;;;;;;;4.90;2.17;;;;;;;1.47;84.07;100524.75;5096820;28;20083;-70
2024/01/23 09:38:53;;;;;;;3.42;3.13;;;;;;;1.51;83.94;100527.53;5097110;28;20048;-71
2024/01/23 09:41:24;;;;;;;4.03;3.65;;;;;;;1.58;83.22;100523.66;5097161;28;20089;-71
2024/01/23 09:43:53;;;;;;;4.68;2.97;;;;;;;1.62;83.32;100525.50;5096767;28;20054;-72
2024/01/23 09:46:24;;;;;;;3.60;3.22;;;;;;;1.72;83.05;100530.19;5096446;28;20044;-72
2024/01/23 09:48:53;;;;;;;2.15;2.05;;;;;;;1.74;83.69;100532.00;5096793;28;20073;-73
2024/01/23 09:51:24;;;;;;;2.90;2.70;;;;;;;1.79;83.07;100534.72;5096766;28;20042;-72
2024/01/23 09:53:54;;;;;;;3.10;2.88;;;;;;;1.82;83.29;100534.88;5096722;28;20040;-72
2024/01/23 09:56:23;;;;;;;1.85;1.75;;;;;;;1.81;83.28;100533.16;5094884;28;20051;-72
2024/01/23 09:58:52;;;;;;;;;;;;;;;1.79;82.98;100523.00;5096690;28;20487;-72
2024/01/23 10:01:22;;;;;;;2.13;2.03;;;;;;;1.74;82.21;100523.59;5096341;28;19920;-73
2024/01/23 10:03:57;;;;;;;7.93;3.90;;;;;;;1.68;82.13;100530.84;5096535;28;20054;-72
2024/01/23 10:06:26;;;;;;;8.52;3.63;;;;;;;1.68;82.01;100531.69;5096435;28;20134;-73
2024/01/23 10:08:55;;;;;;;2.08;1.98;;;;;;;1.66;82.72;100522.34;5096385;28;20054;-73
2024/01/23 10:11:24;;;;;;;1.57;1.47;;;;;;;1.75;82.11;100522.81;5096506;28;20044;-72
2024/01/23 10:13:56;;;;;;;2.53;2.33;;;;;;;1.76;82.73;100519.47;5096419;28;20139;-72
2024/01/23 10:16:26;;;;;;;5.35;4.85;;;;;;;1.68;82.62;100503.19;5096399;28;20044;-73
2024/01/23 10:18:56;;;;;;;7.22;3.35;;;;;;;1.72;82.12;100505.91;5096313;28;20494;-73
2024/01/23 10:21:26;;;;;;;2.35;1.55;;;;;;;1.76;83.04;100494.31;5096548;28;20044;-74
2024/01/23 10:23:58;;;;;;;10.80;3.70;;;;;;;1.82;82.49;100487.06;5096054;28;20440;-73
2024/01/23 10:26:26;;;;;;;2.65;2.45;;;;;;;1.95;82.51;100501.94;5094890;28;20525;-73
2024/01/23 10:28:55;;;;;;;2.40;1.83;;;;;;;2.07;82.15;100499.97;5096184;28;20038;-71
2024/01/23 10:31:24;;;;;;;3.80;1.70;;;;;;;2.18;81.99;100511.44;5096023;28;20322;-71
2024/01/23 10:33:53;;;;;;;3.03;2.83;;;;;;;2.06;82.30;100489.84;5094790;28;20827;-71
2024/01/23 10:36:25;;;;;;;;;;;;;;;2.11;81.70;100516.97;5096232;28;20047;-73
2024/01/23 10:38:55;;;;;;;7.53;4.53;;;;;;;2.09;81.62;100505.94;5095904;28;19924;-71
2024/01/23 10:41:26;;;;;;;2.88;1.65;;;;;;;2.09;82.45;100500.91;5094999;28;20044;-71
2024/01/23 10:43:59;;;;;;;1.88;1.77;;;;;;;2.12;82.08;100500.19;5095549;28;20044;-72
2024/01/23 10:46:29;;;;;;;2.30;2.13;;;;;;;2.08;81.97;100500.84;5094527;28;20050;-72
2024/01/23 10:48:58;;;;;;;3.20;2.50;;;;;;;2.12;82.15;100511.13;5095838;28;20384;-72
2024/01/23 10:51:32;;;;;;;9.30;5.45;;;;;;;2.06;81.57;100490.72;5095615;28;20456;-70
2024/01/23 10:54:08;;;;;;;4.60;4.28;;;;;;;2.24;82.17;100521.75;5094085;28;20502;-73
2024/01/23 10:56:44;;;;;;;4.22;2.53;;;;;;;2.23;81.38;100524.22;5095127;28;20044;-72
2024/01/23 10:59:18;;;;;;;2.33;2.20;;;;;;;2.20;81.68;100522.44;5095065;28;20044;-70
2024/01/23 11:01:54;;;;;;;2.10;1.90;;;;;;;2.20;81.15;100508.97;5095367;28;20044;-70
2024/01/23 11:04:25;;;;;;;4.22;2.38;;;;;;;2.19;81.52;100513.13;5095249;28;20109;-70
2024/01/23 11:07:03;;;;;;;4.35;4.03;;;;;;;2.13;81.12;100517.03;5095063;28;20491;-71
2024/01/23 11:09:40;;;;;;;5.53;3.83;;;;;;;2.08;81.02;100513.44;5095376;28;20114;-71
2024/01/23 11:12:20;;;;;;;3.00;1.80;;;;;;;2.04;81.54;100527.53;5095646;28;20072;-71
2024/01/23 11:14:52;;;;;;;3.10;2.80;;;;;;;2.05;81.05;100529.25;5094963;28;20059;-70
2024/01/23 11:17:22;;;;;;;5.18;4.57;;;;;;;2.09;81.17;100520.22;5095226;28;20052;-70
2024/01/23 11:20:06;;;;;;;1.83;1.73;;;;;;;2.11;81.36;100533.72;5105500;28;20135;-70
2024/01/23 11:22:37;;;;;;;5.07;3.92;;;;;;;2.09;81.05;100521.06;5115591;28;20043;-70
2024/01/23 11:25:10;;;;;;;3.83;2.50;;;;;;;1.68;81.37;100455.38;5115210;28;20044;-70
2024/01/23 11:27:40;;;;;;;2.25;2.05;;;;;;;2.08;82.01;100538.63;5115264;28;20070;-71
2024/01/23 11:30:12;;;;;;;4.00;3.53;;;;;;;2.15;82.45;100533.06;5115104;28;20062;-72
2024/01/23 11:32:42;;;;;;;11.90;3.25;;;;;;;2.20;82.36;100529.13;5115194;28;20047;-71
2024/01/23 11:35:12;;;;;;;8.10;4.43;;;;;;;2.16;81.60;100527.25;5114848;28;20050;-71
2024/01/23 11:37:49;;;;;;;5.35;2.15;;;;;;;2.17;82.48;100522.28;5115002;28;20503;-72
2024/01/23 11:40:34;;;;;;;3.60;3.33;;;;;;;2.21;81.77;100530.84;5115125;28;20447;-71
2024/01/23 11:43:08;;;;;;;7.82;4.75;;;;;;;2.23;82.69;100526.75;5113179;28;20123;-71
2024/01/23 11:45:38;;;;;;;1.92;1.83;;;;;;;2.24;82.08;100530.97;5114997;28;20134;-72